Time;durP1;ratioP1;P1;durP2;ratioP2;P2;SDS_P1;SDS_P2;PMS_P1;PMS_P2;Temp;Humidity;BMP_temperature;BMP_pressure;BME280_temperature;BME280_humidity;BME280_pressure;Samples;Min_cycle;Max_cycle;Signal;HPM_P1;HPM_P2
2022/10/26 00:00:01;;;;;;;8.88;8.05;;;;;;;;;;4986161;28;20030;-76
2022/10/26 00:02:26;;;;;;;8.70;8.00;;;;;;;;;;4984396;28;20026;-75
2022/10/26 00:04:52;;;;;;;8.50;7.80;;;;;;;;;;4984525;28;20094;-76
2022/10/26 00:07:17;;;;;;;8.63;7.80;;;;;;;;;;4988065;28;20655;-76
2022/10/26 00:09:43;;;;;;;9.65;8.57;;;;;;;;;;4987593;28;20038;-76
2022/10/26 00:12:08;;;;;;;9.38;8.57;;;;;;;;;;4982218;28;20532;-76
2022/10/26 00:14:34;;;;;;;9.85;8.85;;;;;;;;;;4986810;28;20039;-76
2022/10/26 00:17:00;;;;;;;9.18;8.13;;;;;;;;;;4985471;28;20034;-76
2022/10/26 00:19:25;;;;;;;9.75;8.13;;;;;;;;;;4987699;28;20076;-76
2022/10/26 00:21:52;;;;;;;11.32;8.57;;;;;;;;;;4980659;28;20058;-76
2022/10/26 00:24:17;;;;;;;8.98;8.07;;;;;;;;;;4986397;28;20037;-76
2022/10/26 00:26:43;;;;;;;13.50;8.57;;;;;;;;;;4986543;28;20125;-76
2022/10/26 00:29:10;;;;;;;11.52;8.98;;;;;;;;;;4983557;28;20031;-76
2022/10/26 00:31:37;;;;;;;10.45;8.70;;;;;;;;;;4984417;28;20027;-76
2022/10/26 00:34:02;;;;;;;9.77;8.70;;;;;;;;;;4986383;28;20092;-76
2022/10/26 00:36:28;;;;;;;10.00;9.07;;;;;;;;;;4978704;28;20121;-76
2022/10/26 00:38:55;;;;;;;8.82;8.05;;;;;;;;;;4986001;28;20050;-76
2022/10/26 00:41:26;;;;;;;9.35;8.35;;;;;;;;;;4984657;28;20034;-76
2022/10/26 00:43:52;;;;;;;15.10;8.82;;;;;;;;;;4986690;28;20046;-76
2022/10/26 00:46:24;;;;;;;12.55;7.85;;;;;;;;;;4981167;28;20034;-76
2022/10/26 00:48:54;;;;;;;13.57;8.50;;;;;;;;;;4985135;28;20038;-76
2022/10/26 00:51:31;;;;;;;15.95;8.20;;;;;;;;;;4986268;28;20429;-76
2022/10/26 00:53:59;;;;;;;9.25;8.40;;;;;;;;;;4984337;28;20084;-76
2022/10/26 00:56:26;;;;;;;9.48;8.57;;;;;;;;;;4986841;28;20175;-76
2022/10/26 00:58:52;;;;;;;9.13;8.27;;;;;;;;;;4986282;28;20878;-76
2022/10/26 01:01:17;;;;;;;9.55;8.55;;;;;;;;;;4983025;28;20247;-76
2022/10/26 01:03:44;;;;;;;9.63;8.85;;;;;;;;;;4982272;28;20642;-76
2022/10/26 01:06:10;;;;;;;8.80;7.90;;;;;;;;;;4985881;28;20038;-76
2022/10/26 01:08:36;;;;;;;13.98;8.73;;;;;;;;;;4986710;28;20045;-76
2022/10/26 01:11:02;;;;;;;9.63;8.68;;;;;;;;;;4985673;28;20030;-76
2022/10/26 01:13:30;;;;;;;9.23;8.20;;;;;;;;;;4972238;28;20030;-76
2022/10/26 01:16:28;;;;;;;13.50;8.88;;;;;;;;;;4983490;28;20144;-76
2022/10/26 01:19:30;;;;;;;8.87;7.73;;;;;;;;;;4985310;28;20042;-76
2022/10/26 01:22:01;;;;;;;8.88;8.00;;;;;;;;;;4982685;28;20118;-76
2022/10/26 01:25:18;;;;;;;8.98;7.72;;;;;;;;;;4986413;28;20038;-76
2022/10/26 01:27:47;;;;;;;10.20;8.57;;;;;;;;;;4980625;28;20050;-76
2022/10/26 01:30:21;;;;;;;12.07;8.60;;;;;;;;;;4975945;28;20052;-77
2022/10/26 01:33:11;;;;;;;9.10;8.30;;;;;;;;;;4985669;28;20050;-76
2022/10/26 01:35:46;;;;;;;9.23;8.20;;;;;;;;;;4990512;28;20046;-76
2022/10/26 01:38:33;;;;;;;9.10;8.25;;;;;;;;;;4986376;28;20505;-76
2022/10/26 01:41:12;;;;;;;9.65;8.40;;;;;;;;;;4988039;28;20042;-76
2022/10/26 01:43:44;;;;;;;9.38;8.45;;;;;;;;;;4984865;28;20138;-76
2022/10/26 01:46:10;;;;;;;9.55;8.45;;;;;;;;;;4985580;28;20034;-76
2022/10/26 01:48:38;;;;;;;12.40;8.88;;;;;;;;;;4987261;28;20038;-76
2022/10/26 01:51:06;;;;;;;11.50;8.80;;;;;;;;;;4989563;28;20026;-76
2022/10/26 01:53:31;;;;;;;9.55;8.60;;;;;;;;;;4986041;28;20501;-77
2022/10/26 01:55:58;;;;;;;10.10;9.13;;;;;;;;;;4984661;28;20498;-76
2022/10/26 01:58:35;;;;;;;9.88;8.77;;;;;;;;;;4983771;28;20054;-76
2022/10/26 02:01:32;;;;;;;9.82;8.90;;;;;;;;;;4984852;28;20042;-76
2022/10/26 02:04:10;;;;;;;10.27;9.23;;;;;;;;;;4985137;28;20042;-77
2022/10/26 02:06:49;;;;;;;9.23;8.50;;;;;;;;;;4977797;28;20042;-77
2022/10/26 02:09:15;;;;;;;;;;;;;;;;;;4988165;28;20042;-77
2022/10/26 02:11:43;;;;;;;10.00;9.00;;;;;;;;;;4988855;28;19913;-77
2022/10/26 02:14:47;;;;;;;9.23;8.43;;;;;;;;;;4988557;28;20092;-76
2022/10/26 02:17:33;;;;;;;13.00;8.07;;;;;;;;;;4986031;28;20041;-76
2022/10/26 02:20:03;;;;;;;9.50;8.68;;;;;;;;;;4988400;28;20065;-77
2022/10/26 02:22:32;;;;;;;8.60;7.85;;;;;;;;;;4987520;28;20036;-76
2022/10/26 02:24:59;;;;;;;11.00;8.30;;;;;;;;;;4985014;28;20038;-76
2022/10/26 02:27:29;;;;;;;13.52;8.55;;;;;;;;;;4984448;28;20053;-77
2022/10/26 02:29:57;;;;;;;9.90;8.75;;;;;;;;;;4988664;28;20498;-77
2022/10/26 02:32:27;;;;;;;10.10;8.95;;;;;;;;;;4988897;28;20038;-76
2022/10/26 02:34:55;;;;;;;10.05;8.95;;;;;;;;;;4988195;28;20038;-77
2022/10/26 02:37:23;;;;;;;9.82;8.88;;;;;;;;;;4987958;28;20089;-76
2022/10/26 02:39:50;;;;;;;14.63;8.55;;;;;;;;;;4988129;28;20031;-76
2022/10/26 02:42:17;;;;;;;9.30;8.38;;;;;;;;;;4987684;28;20077;-76
2022/10/26 02:44:48;;;;;;;8.65;7.97;;;;;;;;;;4986213;28;20122;-77
2022/10/26 02:47:14;;;;;;;9.00;8.27;;;;;;;;;;4985231;28;20034;-76
2022/10/26 02:49:40;;;;;;;8.85;8.05;;;;;;;;;;4986715;28;20049;-76
2022/10/26 02:52:14;;;;;;;9.20;8.38;;;;;;;;;;4987395;28;20042;-76
2022/10/26 02:54:46;;;;;;;9.27;8.02;;;;;;;;;;4981608;28;20023;-76
2022/10/26 02:57:18;;;;;;;9.35;8.50;;;;;;;;;;4987141;28;20038;-76
2022/10/26 02:59:46;;;;;;;10.18;9.00;;;;;;;;;;4985933;28;20030;-76
2022/10/26 03:02:15;;;;;;;9.15;8.35;;;;;;;;;;4985998;28;20042;-76
2022/10/26 03:04:41;;;;;;;9.27;8.27;;;;;;;;;;4986018;28;20498;-76
2022/10/26 03:07:06;;;;;;;9.85;9.00;;;;;;;;;;4989039;28;20044;-77
2022/10/26 03:09:32;;;;;;;11.93;9.15;;;;;;;;;;4989115;28;20027;-76
2022/10/26 03:11:57;;;;;;;9.27;8.40;;;;;;;;;;4987460;28;20073;-77
2022/10/26 03:14:23;;;;;;;9.20;8.40;;;;;;;;;;4984824;28;20390;-77
2022/10/26 03:16:49;;;;;;;9.60;8.65;;;;;;;;;;4986372;28;20034;-76
2022/10/26 03:19:15;;;;;;;9.30;8.40;;;;;;;;;;4987383;28;20034;-77
2022/10/26 03:21:41;;;;;;;10.88;8.85;;;;;;;;;;4985431;28;20394;-76
2022/10/26 03:24:08;;;;;;;9.77;8.95;;;;;;;;;;4985860;28;20038;-77
2022/10/26 03:26:33;;;;;;;10.60;9.57;;;;;;;;;;4987006;28;20048;-77
2022/10/26 03:28:59;;;;;;;9.43;8.52;;;;;;;;;;4987044;28;20042;-76
2022/10/26 03:31:24;;;;;;;9.43;8.48;;;;;;;;;;4987274;28;20046;-77
2022/10/26 03:33:50;;;;;;;15.43;8.77;;;;;;;;;;4986527;28;20077;-76
2022/10/26 03:36:15;;;;;;;10.65;7.85;;;;;;;;;;4981335;28;20092;-76
2022/10/26 03:38:41;;;;;;;14.18;8.68;;;;;;;;;;4985859;28;20037;-76
2022/10/26 03:41:06;;;;;;;9.57;8.77;;;;;;;;;;4985571;28;20050;-76
2022/10/26 03:43:32;;;;;;;12.60;8.85;;;;;;;;;;4986673;28;20061;-76
2022/10/26 03:45:57;;;;;;;10.25;9.15;;;;;;;;;;4988388;28;20030;-76
2022/10/26 03:48:23;;;;;;;9.50;8.60;;;;;;;;;;4986805;28;20121;-76
2022/10/26 03:50:48;;;;;;;9.57;8.68;;;;;;;;;;4986098;28;20033;-77
2022/10/26 03:53:14;;;;;;;10.85;8.95;;;;;;;;;;4987247;28;20497;-76
2022/10/26 03:55:43;;;;;;;9.68;8.70;;;;;;;;;;4983858;28;20760;-77
2022/10/26 03:58:09;;;;;;;10.75;8.65;;;;;;;;;;4983915;28;20070;-76
2022/10/26 04:00:34;;;;;;;8.90;8.13;;;;;;;;;;4984204;28;20085;-76
2022/10/26 04:03:00;;;;;;;9.68;8.02;;;;;;;;;;4982937;28;20037;-76
2022/10/26 04:05:27;;;;;;;12.70;8.02;;;;;;;;;;4981525;28;20050;-77
2022/10/26 04:08:01;;;;;;;8.85;8.15;;;;;;;;;;4984211;28;20049;-75
2022/10/26 04:10:27;;;;;;;9.15;8.25;;;;;;;;;;4983533;28;20398;-77
2022/10/26 04:12:54;;;;;;;8.80;7.95;;;;;;;;;;4985164;28;20505;-75
2022/10/26 04:15:20;;;;;;;14.77;7.82;;;;;;;;;;4979967;28;20042;-76
2022/10/26 04:17:46;;;;;;;9.25;8.05;;;;;;;;;;4984408;28;20026;-76
2022/10/26 04:20:12;;;;;;;8.45;7.85;;;;;;;;;;4983127;28;20532;-76
2022/10/26 04:22:37;;;;;;;8.95;8.07;;;;;;;;;;4981095;28;20038;-76
2022/10/26 04:25:04;;;;;;;9.30;8.40;;;;;;;;;;4986809;28;20165;-76
2022/10/26 04:27:30;;;;;;;12.55;8.55;;;;;;;;;;4986028;28;20093;-76
2022/10/26 04:29:56;;;;;;;10.20;9.20;;;;;;;;;;4983238;28;20035;-76
2022/10/26 04:32:21;;;;;;;9.45;8.65;;;;;;;;;;4986207;28;20052;-76
2022/10/26 04:34:47;;;;;;;10.82;8.88;;;;;;;;;;4984259;28;20560;-76
2022/10/26 04:37:12;;;;;;;10.60;9.50;;;;;;;;;;4987270;28;20113;-76
2022/10/26 04:39:38;;;;;;;19.90;10.00;;;;;;;;;;4984662;28;20066;-76
2022/10/26 04:42:03;;;;;;;16.00;9.45;;;;;;;;;;4986651;28;20041;-76
2022/10/26 04:44:29;;;;;;;10.60;9.50;;;;;;;;;;4985078;28;20506;-76
2022/10/26 04:46:55;;;;;;;11.70;8.68;;;;;;;;;;4984959;28;20129;-76
2022/10/26 04:49:20;;;;;;;9.60;8.70;;;;;;;;;;4985315;28;20027;-76
2022/10/26 04:51:46;;;;;;;10.40;9.55;;;;;;;;;;4987808;28;20038;-76
2022/10/26 04:54:11;;;;;;;9.93;8.90;;;;;;;;;;4973130;28;20034;-76
2022/10/26 04:56:37;;;;;;;9.55;8.85;;;;;;;;;;4981238;28;20031;-76
2022/10/26 04:59:02;;;;;;;9.93;8.60;;;;;;;;;;4986685;28;20081;-76
2022/10/26 05:01:30;;;;;;;10.00;9.00;;;;;;;;;;4984300;28;20117;-76
2022/10/26 05:03:55;;;;;;;9.60;8.88;;;;;;;;;;4984350;28;20482;-76
2022/10/26 05:06:21;;;;;;;10.27;9.38;;;;;;;;;;4978667;28;20063;-76
2022/10/26 05:08:47;;;;;;;10.90;9.45;;;;;;;;;;4983667;28;20057;-75
2022/10/26 05:11:13;;;;;;;13.23;9.82;;;;;;;;;;4990133;28;20038;-75
2022/10/26 05:13:39;;;;;;;10.05;9.25;;;;;;;;;;4989710;28;20062;-75
2022/10/26 05:16:04;;;;;;;10.50;9.70;;;;;;;;;;4989155;28;20113;-75
2022/10/26 05:18:30;;;;;;;10.20;9.20;;;;;;;;;;4987010;28;20031;-75
2022/10/26 05:20:56;;;;;;;10.70;9.60;;;;;;;;;;4986848;28;20486;-76
2022/10/26 05:23:22;;;;;;;10.15;9.18;;;;;;;;;;4989746;28;20042;-76
2022/10/26 05:25:48;;;;;;;11.68;9.77;;;;;;;;;;4989869;28;20125;-75
2022/10/26 05:28:15;;;;;;;10.48;9.57;;;;;;;;;;4981720;28;20058;-76
2022/10/26 05:30:41;;;;;;;12.35;9.57;;;;;;;;;;4986486;28;20038;-76
2022/10/26 05:33:09;;;;;;;12.05;9.50;;;;;;;;;;4985903;28;20034;-76
2022/10/26 05:35:35;;;;;;;18.45;12.23;;;;;;;;;;4981258;28;20057;-76
2022/10/26 05:38:27;;;;;;;17.95;11.98;;;;;;;;;;5006109;28;20034;-76
2022/10/26 05:40:53;;;;;;;11.90;10.68;;;;;;;;;;4988570;28;20065;-76
2022/10/26 05:43:21;;;;;;;9.52;8.73;;;;;;;;;;4988298;28;20154;-77
2022/10/26 05:45:48;;;;;;;12.77;10.60;;;;;;;;;;4990110;28;20045;-77
2022/10/26 05:48:14;;;;;;;12.30;10.52;;;;;;;;;;4989676;28;20030;-76
2022/10/26 05:50:39;;;;;;;12.55;10.45;;;;;;;;;;4991034;28;20279;-76
2022/10/26 05:53:05;;;;;;;11.38;10.35;;;;;;;;;;4990033;28;20411;-76
2022/10/26 05:55:31;;;;;;;14.93;10.63;;;;;;;;;;4990993;28;20030;-76
2022/10/26 05:57:57;;;;;;;9.95;8.48;;;;;;;;;;4991522;28;20088;-76
2022/10/26 06:00:25;;;;;;;10.95;9.85;;;;;;;;;;4990002;28;20064;-76
2022/10/26 06:03:18;;;;;;;10.73;9.73;;;;;;;;;;4988562;28;20486;-75
2022/10/26 06:05:49;;;;;;;11.13;10.10;;;;;;;;;;4990548;28;20038;-75
2022/10/26 06:08:15;;;;;;;14.93;10.07;;;;;;;;;;4989343;28;20034;-75
2022/10/26 06:10:41;;;;;;;15.13;11.75;;;;;;;;;;4990395;28;20391;-75
2022/10/26 06:13:07;;;;;;;11.43;10.20;;;;;;;;;;4987538;28;20144;-74
2022/10/26 06:15:43;;;;;;;13.07;10.43;;;;;;;;;;4988726;28;20116;-75
2022/10/26 06:18:34;;;;;;;27.25;17.15;;;;;;;;;;4988414;28;20040;-75
2022/10/26 06:21:24;;;;;;;28.52;20.15;;;;;;;;;;4984677;28;20042;-75
2022/10/26 06:24:05;;;;;;;13.77;12.48;;;;;;;;;;4990124;28;20031;-75
2022/10/26 06:26:50;;;;;;;15.43;11.80;;;;;;;;;;4990410;28;20045;-75
2022/10/26 06:29:47;;;;;;;12.25;11.15;;;;;;;;;;4989222;28;20109;-75
2022/10/26 06:32:12;;;;;;;21.48;18.95;;;;;;;;;;4995730;28;20049;-75
2022/10/26 06:34:44;;;;;;;21.50;19.13;;;;;;;;;;5000523;28;20038;-75
2022/10/26 06:37:10;;;;;;;13.95;12.57;;;;;;;;;;4988244;28;20471;-76
2022/10/26 06:39:39;;;;;;;15.40;13.70;;;;;;;;;;4995847;28;20430;-74
2022/10/26 06:42:06;;;;;;;;;;;;;;;;;;4996972;28;20444;-75
2022/10/26 06:44:33;;;;;;;11.45;10.38;;;;;;;;;;4995289;28;19917;-75
2022/10/26 06:47:07;;;;;;;13.07;9.90;;;;;;;;;;4987676;28;20096;-74
2022/10/26 06:49:50;;;;;;;10.70;9.68;;;;;;;;;;4994066;28;20101;-74
2022/10/26 06:52:32;;;;;;;12.23;9.70;;;;;;;;;;4998471;28;20029;-74
2022/10/26 06:54:59;;;;;;;10.88;9.88;;;;;;;;;;4984373;28;20050;-74
2022/10/26 06:57:33;;;;;;;10.93;9.82;;;;;;;;;;4975197;28;20406;-74
2022/10/26 07:00:02;;;;;;;10.65;9.80;;;;;;;;;;4992634;28;20081;-74
2022/10/26 07:02:28;;;;;;;10.75;9.75;;;;;;;;;;4982638;28;20069;-74
2022/10/26 07:04:53;;;;;;;15.35;11.63;;;;;;;;;;4998912;28;20073;-74
2022/10/26 07:07:22;;;;;;;14.93;10.38;;;;;;;;;;4995906;28;20042;-74
2022/10/26 07:09:48;;;;;;;18.13;16.33;;;;;;;;;;4988726;28;20050;-74
2022/10/26 07:12:14;;;;;;;12.13;9.80;;;;;;;;;;4990292;28;20038;-74
2022/10/26 07:14:39;;;;;;;13.18;9.75;;;;;;;;;;4989881;28;20095;-75
2022/10/26 07:17:05;;;;;;;10.40;9.52;;;;;;;;;;4986309;28;20053;-74
2022/10/26 07:19:31;;;;;;;10.20;9.27;;;;;;;;;;4987178;28;20185;-74
2022/10/26 07:22:00;;;;;;;11.32;9.70;;;;;;;;;;4988916;28;20482;-74
2022/10/26 07:24:27;;;;;;;10.52;9.52;;;;;;;;;;4988962;28;20359;-74
2022/10/26 07:26:54;;;;;;;10.02;9.15;;;;;;;;;;4989216;28;20058;-74
2022/10/26 07:29:20;;;;;;;9.82;9.00;;;;;;;;;;4989034;28;20092;-74
2022/10/26 07:31:46;;;;;;;10.25;9.38;;;;;;;;;;4987859;28;20118;-74
2022/10/26 07:34:11;;;;;;;11.55;10.45;;;;;;;;;;4986122;28;20117;-73
2022/10/26 07:36:38;;;;;;;11.55;10.55;;;;;;;;;;4989192;28;20054;-74
2022/10/26 07:39:04;;;;;;;12.50;10.73;;;;;;;;;;4989775;28;20053;-73
2022/10/26 07:41:30;;;;;;;11.20;10.10;;;;;;;;;;4988645;28;20033;-74
2022/10/26 07:43:55;;;;;;;9.90;9.18;;;;;;;;;;4985827;28;20117;-74
2022/10/26 07:46:21;;;;;;;10.77;9.77;;;;;;;;;;4987863;28;20042;-74
2022/10/26 07:48:46;;;;;;;10.25;8.82;;;;;;;;;;4989240;28;20061;-74
2022/10/26 07:51:12;;;;;;;10.60;8.75;;;;;;;;;;4986667;28;20038;-74
2022/10/26 07:53:37;;;;;;;10.38;9.48;;;;;;;;;;4985966;28;20405;-74
2022/10/26 07:56:03;;;;;;;9.55;8.63;;;;;;;;;;4988306;28;20112;-74
2022/10/26 07:58:29;;;;;;;10.65;9.23;;;;;;;;;;4987940;28;20106;-74
2022/10/26 08:00:55;;;;;;;9.68;8.77;;;;;;;;;;4986711;28;20045;-74
2022/10/26 08:03:21;;;;;;;10.43;9.52;;;;;;;;;;4985048;28;20037;-74
2022/10/26 08:05:52;;;;;;;10.40;9.40;;;;;;;;;;4988180;28;20034;-74
2022/10/26 08:08:18;;;;;;;11.90;10.60;;;;;;;;;;4988216;28;20310;-74
2022/10/26 08:10:44;;;;;;;9.80;9.00;;;;;;;;;;4986249;28;20080;-74
2022/10/26 08:13:10;;;;;;;11.32;10.15;;;;;;;;;;4986886;28;20033;-74
2022/10/26 08:15:36;;;;;;;11.68;9.27;;;;;;;;;;4988484;28;20385;-74
2022/10/26 08:18:02;;;;;;;10.52;9.55;;;;;;;;;;4988534;28;20061;-74
2022/10/26 08:20:27;;;;;;;14.80;9.50;;;;;;;;;;4986770;28;20394;-74
2022/10/26 08:22:55;;;;;;;11.20;10.13;;;;;;;;;;4990657;28;20425;-74
2022/10/26 08:25:21;;;;;;;12.48;9.18;;;;;;;;;;4988201;28;20375;-74
2022/10/26 08:27:47;;;;;;;11.00;9.70;;;;;;;;;;4987547;28;20026;-73
2022/10/26 08:30:13;;;;;;;20.23;13.75;;;;;;;;;;4982540;28;20064;-74
2022/10/26 08:32:38;;;;;;;10.43;9.50;;;;;;;;;;4987306;28;20030;-73
2022/10/26 08:35:04;;;;;;;15.35;12.70;;;;;;;;;;4987696;28;20536;-74
2022/10/26 08:37:30;;;;;;;10.25;9.40;;;;;;;;;;4988327;28;20038;-74
2022/10/26 08:39:55;;;;;;;12.00;10.52;;;;;;;;;;4984070;28;20502;-74
2022/10/26 08:42:27;;;;;;;15.68;9.65;;;;;;;;;;4983868;28;20030;-74
2022/10/26 08:45:00;;;;;;;9.70;8.70;;;;;;;;;;4991057;28;20341;-74
2022/10/26 08:47:46;;;;;;;9.80;8.88;;;;;;;;;;4987087;28;20410;-75
2022/10/26 08:50:30;;;;;;;16.70;10.68;;;;;;;;;;4991345;28;20513;-74
2022/10/26 08:53:02;;;;;;;11.73;10.13;;;;;;;;;;4991288;28;20085;-74
2022/10/26 08:55:38;;;;;;;10.73;9.55;;;;;;;;;;4991582;28;20351;-74
2022/10/26 08:58:10;;;;;;;9.68;8.93;;;;;;;;;;4988399;28;20066;-74
2022/10/26 09:00:37;;;;;;;11.00;8.82;;;;;;;;;;4989863;28;20125;-74
2022/10/26 09:03:13;;;;;;;10.02;9.23;;;;;;;;;;4989560;28;20528;-74
2022/10/26 09:06:08;;;;;;;12.27;9.00;;;;;;;;;;4986795;28;20042;-74
2022/10/26 09:09:01;;;;;;;10.35;9.35;;;;;;;;;;4989753;28;20038;-74
2022/10/26 09:11:32;;;;;;;10.60;9.50;;;;;;;;;;4986789;28;20121;-74
2022/10/26 09:14:18;;;;;;;10.27;9.35;;;;;;;;;;4990227;28;20358;-74
2022/10/26 09:17:05;;;;;;;11.35;8.95;;;;;;;;;;4986929;28;20145;-74
2022/10/26 09:19:58;;;;;;;12.18;9.48;;;;;;;;;;4988981;28;20041;-74
2022/10/26 09:22:46;;;;;;;10.45;9.43;;;;;;;;;;4991347;28;20038;-74
2022/10/26 09:25:18;;;;;;;12.95;9.50;;;;;;;;;;4988652;28;20532;-74
2022/10/26 09:27:48;;;;;;;10.93;9.23;;;;;;;;;;4988822;28;20109;-73
2022/10/26 09:30:19;;;;;;;9.38;8.57;;;;;;;;;;4989840;28;20458;-74
2022/10/26 09:32:47;;;;;;;9.07;8.38;;;;;;;;;;4988501;28;20034;-73
2022/10/26 09:35:19;;;;;;;9.63;8.88;;;;;;;;;;4988758;28;20446;-74
2022/10/26 09:37:55;;;;;;;9.73;8.63;;;;;;;;;;4987335;28;20609;-74
2022/10/26 09:40:26;;;;;;;9.18;8.25;;;;;;;;;;4990670;28;20097;-74
2022/10/26 09:43:04;;;;;;;14.52;8.10;;;;;;;;;;4988253;28;20046;-74
2022/10/26 09:45:34;;;;;;;8.68;8.07;;;;;;;;;;4989657;28;20253;-75
2022/10/26 09:48:42;;;;;;;9.15;8.32;;;;;;;;;;4991218;28;20026;-74
2022/10/26 09:51:07;;;;;;;8.70;7.88;;;;;;;;;;4982590;28;20137;-73
2022/10/26 09:53:33;;;;;;;9.68;8.77;;;;;;;;;;4985374;28;20165;-74
2022/10/26 09:56:10;;;;;;;13.20;8.77;;;;;;;;;;4982903;28;20120;-74
2022/10/26 09:59:01;;;;;;;11.93;7.70;;;;;;;;;;4983506;28;20049;-74
2022/10/26 10:01:26;;;;;;;7.47;6.78;;;;;;;;;;4982541;28;20034;-73
2022/10/26 10:04:13;;;;;;;8.52;6.85;;;;;;;;;;4983893;28;20041;-74
2022/10/26 10:06:39;;;;;;;7.57;6.80;;;;;;;;;;4984178;28;20040;-73
2022/10/26 10:09:10;;;;;;;8.13;6.07;;;;;;;;;;4982361;28;20046;-73
2022/10/26 10:11:42;;;;;;;7.45;6.72;;;;;;;;;;4988525;28;20077;-73
2022/10/26 10:14:12;;;;;;;7.38;6.80;;;;;;;;;;4985764;28;20030;-73
2022/10/26 10:16:38;;;;;;;8.25;7.43;;;;;;;;;;4985752;28;20093;-73
2022/10/26 10:19:03;;;;;;;10.18;7.93;;;;;;;;;;4989973;28;20580;-73
2022/10/26 10:21:48;;;;;;;11.93;8.27;;;;;;;;;;4990437;28;20045;-74
2022/10/26 10:24:29;;;;;;;11.60;7.93;;;;;;;;;;4990392;28;20073;-73
2022/10/26 10:27:14;;;;;;;9.13;7.80;;;;;;;;;;4983583;28;20038;-73
2022/10/26 10:29:43;;;;;;;8.93;7.97;;;;;;;;;;4988552;28;20038;-74
2022/10/26 10:32:15;;;;;;;7.88;7.18;;;;;;;;;;4986758;28;20084;-74
2022/10/26 10:34:42;;;;;;;8.35;7.20;;;;;;;;;;4985708;28;20040;-73
2022/10/26 10:37:30;;;;;;;12.85;7.70;;;;;;;;;;4988681;28;20085;-73
2022/10/26 10:39:56;;;;;;;12.43;8.35;;;;;;;;;;4988644;28;20313;-73
2022/10/26 10:42:28;;;;;;;10.60;8.00;;;;;;;;;;4983956;28;20057;-74
2022/10/26 10:44:55;;;;;;;13.55;8.73;;;;;;;;;;4986485;28;20046;-73
2022/10/26 10:47:25;;;;;;;9.40;8.60;;;;;;;;;;4989153;28;20066;-74
2022/10/26 10:50:03;;;;;;;8.85;8.00;;;;;;;;;;4984548;28;20060;-74
2022/10/26 10:52:31;;;;;;;9.02;8.13;;;;;;;;;;4987947;28;20034;-74
2022/10/26 10:55:13;;;;;;;8.25;7.63;;;;;;;;;;4989165;28;20034;-74
2022/10/26 10:57:53;;;;;;;8.43;7.47;;;;;;;;;;4989273;28;20045;-74
2022/10/26 11:00:20;;;;;;;9.13;7.95;;;;;;;;;;4985753;28;20727;-74
2022/10/26 11:03:23;;;;;;;9.15;8.20;;;;;;;;;;4986843;28;20506;-74
2022/10/26 11:06:08;;;;;;;8.50;7.50;;;;;;;;;;4985500;28;20073;-74
2022/10/26 11:08:55;;;;;;;8.13;7.32;;;;;;;;;;4983423;28;20506;-74
2022/10/26 11:11:26;;;;;;;8.73;7.57;;;;;;;;;;4983369;28;20050;-73
2022/10/26 11:14:16;;;;;;;8.35;7.55;;;;;;;;;;4985481;28;20042;-74
2022/10/26 11:16:54;;;;;;;8.18;7.40;;;;;;;;;;4984760;28;20544;-74
2022/10/26 11:19:36;;;;;;;10.43;7.72;;;;;;;;;;4983469;28;20133;-74
2022/10/26 11:22:04;;;;;;;7.80;7.10;;;;;;;;;;4983869;28;20038;-74
2022/10/26 11:24:45;;;;;;;11.82;7.35;;;;;;;;;;4969650;28;20050;-73
2022/10/26 11:27:16;;;;;;;11.27;8.90;;;;;;;;;;4985559;28;20038;-74
2022/10/26 11:30:01;;;;;;;8.35;7.65;;;;;;;;;;4980394;28;20082;-74
2022/10/26 11:32:39;;;;;;;11.10;7.63;;;;;;;;;;4984254;28;20129;-74
2022/10/26 11:35:17;;;;;;;8.27;7.50;;;;;;;;;;4984323;28;20041;-75
2022/10/26 11:38:00;;;;;;;9.18;7.53;;;;;;;;;;4984444;28;20430;-74
2022/10/26 11:40:46;;;;;;;9.63;7.60;;;;;;;;;;4985079;28;20031;-75
2022/10/26 11:43:23;;;;;;;8.85;7.90;;;;;;;;;;4986671;28;20050;-75
2022/10/26 11:46:06;;;;;;;8.70;7.90;;;;;;;;;;4981406;28;20113;-75
2022/10/26 11:48:43;;;;;;;12.65;7.97;;;;;;;;;;4982619;28;20077;-74
2022/10/26 11:51:20;;;;;;;10.75;8.10;;;;;;;;;;4987108;28;20038;-75
2022/10/26 11:53:47;;;;;;;8.90;7.63;;;;;;;;;;4983238;28;20031;-74
2022/10/26 11:56:24;;;;;;;9.73;7.53;;;;;;;;;;4987355;28;20045;-75
2022/10/26 11:58:50;;;;;;;8.65;7.70;;;;;;;;;;4986487;28;20138;-74
2022/10/26 12:01:16;;;;;;;10.00;7.35;;;;;;;;;;4987020;28;20049;-74
2022/10/26 12:03:50;;;;;;;13.93;8.18;;;;;;;;;;4985492;28;20097;-74
2022/10/26 12:06:19;;;;;;;11.20;8.02;;;;;;;;;;4987166;28;20026;-75
2022/10/26 12:08:57;;;;;;;9.32;8.13;;;;;;;;;;4987408;28;20042;-74
2022/10/26 12:11:38;;;;;;;9.45;7.75;;;;;;;;;;4979373;28;20121;-74
2022/10/26 12:14:25;;;;;;;8.77;7.88;;;;;;;;;;4982647;28;20684;-73
2022/10/26 12:17:16;;;;;;;11.30;7.70;;;;;;;;;;4982189;28;20034;-73
2022/10/26 12:20:04;;;;;;;8.85;7.97;;;;;;;;;;4981040;28;20117;-74
2022/10/26 12:22:35;;;;;;;8.25;7.55;;;;;;;;;;4982294;28;20092;-75
2022/10/26 12:25:13;;;;;;;10.15;8.05;;;;;;;;;;4982832;28;20034;-74
2022/10/26 12:27:38;;;;;;;8.20;7.50;;;;;;;;;;4982086;28;20042;-75
2022/10/26 12:30:10;;;;;;;8.10;7.50;;;;;;;;;;4982117;28;20045;-74
2022/10/26 12:32:35;;;;;;;10.57;7.60;;;;;;;;;;4983006;28;20074;-74
2022/10/26 12:35:23;;;;;;;8.30;7.53;;;;;;;;;;4982450;28;20513;-74
2022/10/26 12:37:48;;;;;;;8.20;7.50;;;;;;;;;;4982647;28;20658;-74
2022/10/26 12:40:29;;;;;;;8.02;7.28;;;;;;;;;;4982649;28;20068;-73
2022/10/26 12:42:55;;;;;;;9.43;7.45;;;;;;;;;;4980943;28;20038;-74
2022/10/26 12:45:23;;;;;;;8.20;7.50;;;;;;;;;;4979203;28;20049;-74
2022/10/26 12:47:49;;;;;;;8.38;7.63;;;;;;;;;;4984459;28;20027;-74
2022/10/26 12:50:14;;;;;;;7.95;7.25;;;;;;;;;;4984897;28;20422;-74
2022/10/26 12:52:45;;;;;;;9.38;7.43;;;;;;;;;;4986640;28;20117;-74
2022/10/26 12:55:11;;;;;;;12.02;7.63;;;;;;;;;;4987781;28;20485;-74
2022/10/26 12:57:55;;;;;;;8.80;7.90;;;;;;;;;;4988231;28;20038;-74
2022/10/26 13:00:23;;;;;;;8.02;7.20;;;;;;;;;;4987495;28;20241;-74
2022/10/26 13:03:23;;;;;;;8.18;7.50;;;;;;;;;;4982623;28;20038;-74
2022/10/26 13:06:21;;;;;;;13.77;7.53;;;;;;;;;;4986271;28;20121;-74
2022/10/26 13:08:51;;;;;;;8.30;7.68;;;;;;;;;;4985060;28;20037;-74
2022/10/26 13:11:28;;;;;;;10.90;7.75;;;;;;;;;;4984135;28;20041;-73
2022/10/26 13:14:04;;;;;;;8.63;7.80;;;;;;;;;;4985531;28;20324;-74
2022/10/26 13:16:29;;;;;;;13.27;8.20;;;;;;;;;;4985627;28;20061;-74
2022/10/26 13:18:56;;;;;;;8.07;7.30;;;;;;;;;;4986586;28;20109;-74
2022/10/26 13:21:23;;;;;;;8.00;7.40;;;;;;;;;;4976871;28;20442;-74
2022/10/26 13:24:00;;;;;;;8.82;8.00;;;;;;;;;;4982276;28;20428;-74
2022/10/26 13:26:30;;;;;;;11.68;7.82;;;;;;;;;;4983502;28;20037;-74
2022/10/26 13:29:01;;;;;;;9.05;7.95;;;;;;;;;;4986537;28;20068;-74
2022/10/26 13:31:30;;;;;;;11.48;7.60;;;;;;;;;;4982618;28;20034;-74
2022/10/26 13:34:03;;;;;;;12.63;7.43;;;;;;;;;;4987725;28;20478;-74
2022/10/26 13:36:35;;;;;;;8.32;7.68;;;;;;;;;;4987438;28;20034;-74
2022/10/26 13:39:09;;;;;;;8.48;7.78;;;;;;;;;;4983397;28;20712;-74
2022/10/26 13:41:42;;;;;;;10.10;8.13;;;;;;;;;;4986525;28;20038;-74
2022/10/26 13:44:19;;;;;;;8.77;7.97;;;;;;;;;;4988336;28;20050;-75
2022/10/26 13:46:53;;;;;;;10.45;7.68;;;;;;;;;;4987328;28;20073;-74
2022/10/26 13:49:29;;;;;;;8.93;8.02;;;;;;;;;;4985190;28;20065;-74
2022/10/26 13:51:57;;;;;;;9.10;8.20;;;;;;;;;;4985423;28;20429;-74
2022/10/26 13:54:38;;;;;;;;;;;;;;;;;;4988063;28;20104;-74
2022/10/26 13:57:12;;;;;;;10.07;7.88;;;;;;;;;;4988205;28;20462;-74
2022/10/26 13:59:41;;;;;;;8.70;7.88;;;;;;;;;;4981519;28;20484;-74
2022/10/26 14:02:29;;;;;;;9.05;7.60;;;;;;;;;;4987331;28;20170;-74
2022/10/26 14:05:03;;;;;;;8.45;7.60;;;;;;;;;;4987374;28;20037;-74
2022/10/26 14:07:38;;;;;;;8.38;7.70;;;;;;;;;;4987041;28;20329;-74
2022/10/26 14:10:04;;;;;;;11.52;8.30;;;;;;;;;;4989078;28;20125;-74
2022/10/26 14:12:31;;;;;;;8.63;7.72;;;;;;;;;;4990041;28;20504;-74
2022/10/26 14:15:08;;;;;;;11.15;8.00;;;;;;;;;;4985751;28;20453;-74
2022/10/26 14:17:34;;;;;;;8.27;7.32;;;;;;;;;;4987332;28;20176;-74
2022/10/26 14:20:03;;;;;;;11.45;8.07;;;;;;;;;;4990464;28;20133;-74
2022/10/26 14:22:29;;;;;;;9.82;7.70;;;;;;;;;;4987498;28;20063;-74
2022/10/26 14:24:59;;;;;;;8.85;7.95;;;;;;;;;;5001694;28;20038;-74
2022/10/26 14:27:30;;;;;;;9.30;7.88;;;;;;;;;;4990614;28;20113;-74
2022/10/26 14:29:56;;;;;;;8.70;7.90;;;;;;;;;;4989897;28;20030;-74
2022/10/26 14:32:32;;;;;;;8.80;8.00;;;;;;;;;;4987407;28;20027;-74
2022/10/26 14:34:58;;;;;;;9.65;8.13;;;;;;;;;;4987404;28;20034;-74
2022/10/26 14:37:38;;;;;;;8.77;8.00;;;;;;;;;;4988970;28;20046;-74
2022/10/26 14:40:06;;;;;;;8.63;7.78;;;;;;;;;;4984744;28;20042;-74
2022/10/26 14:42:37;;;;;;;9.52;7.70;;;;;;;;;;4987448;28;20038;-74
2022/10/26 14:45:03;;;;;;;9.95;7.95;;;;;;;;;;4988228;28;20057;-74
2022/10/26 14:47:31;;;;;;;9.02;7.60;;;;;;;;;;4988844;28;20394;-74
2022/10/26 14:49:58;;;;;;;12.33;7.60;;;;;;;;;;4986699;28;20038;-74
2022/10/26 14:52:30;;;;;;;8.90;8.00;;;;;;;;;;4987693;28;20645;-74
2022/10/26 14:55:01;;;;;;;8.38;7.70;;;;;;;;;;4989372;28;20393;-74
2022/10/26 14:57:32;;;;;;;8.52;7.75;;;;;;;;;;4987030;28;20073;-74
2022/10/26 15:00:10;;;;;;;9.32;7.80;;;;;;;;;;4982165;28;20030;-74